sensor_id;sensor_type;location;lat;lon;timestamp;P1;durP1;ratioP1;P2;durP2;ratioP2
77191;SDS011;66172;48.526;8.078;2023-04-03T00:01:37;4.93;;;1.70;;
77191;SDS011;66172;48.526;8.078;2023-04-03T00:04:04;4.88;;;1.70;;
77191;SDS011;66172;48.526;8.078;2023-04-03T00:06:31;4.30;;;1.50;;
77191;SDS011;66172;48.526;8.078;2023-04-03T00:08:57;5.75;;;1.48;;
77191;SDS011;66172;48.526;8.078;2023-04-03T00:11:23;4.95;;;1.60;;
77191;SDS011;66172;48.526;8.078;2023-04-03T00:13:49;4.82;;;1.33;;
77191;SDS011;66172;48.526;8.078;2023-04-03T00:16:15;5.80;;;1.63;;
77191;SDS011;66172;48.526;8.078;2023-04-03T00:18:41;4.80;;;1.50;;
77191;SDS011;66172;48.526;8.078;2023-04-03T00:21:07;4.63;;;1.60;;
77191;SDS011;66172;48.526;8.078;2023-04-03T00:23:35;4.70;;;1.60;;
77191;SDS011;66172;48.526;8.078;2023-04-03T00:26:01;5.03;;;1.65;;
77191;SDS011;66172;48.526;8.078;2023-04-03T00:28:27;4.80;;;1.40;;
77191;SDS011;66172;48.526;8.078;2023-04-03T00:30:53;5.47;;;1.40;;
77191;SDS011;66172;48.526;8.078;2023-04-03T00:33:19;4.68;;;1.70;;
77191;SDS011;66172;48.526;8.078;2023-04-03T00:35:50;5.35;;;1.90;;
77191;SDS011;66172;48.526;8.078;2023-04-03T00:38:16;5.07;;;1.40;;
77191;SDS011;66172;48.526;8.078;2023-04-03T00:40:43;5.85;;;1.98;;
77191;SDS011;66172;48.526;8.078;2023-04-03T00:43:21;5.75;;;1.90;;
77191;SDS011;66172;48.526;8.078;2023-04-03T00:45:51;5.40;;;1.65;;
77191;SDS011;66172;48.526;8.078;2023-04-03T00:48:20;5.32;;;1.98;;
77191;SDS011;66172;48.526;8.078;2023-04-03T00:51:02;4.80;;;1.60;;
77191;SDS011;66172;48.526;8.078;2023-04-03T00:53:33;5.00;;;1.83;;
77191;SDS011;66172;48.526;8.078;2023-04-03T00:56:03;5.00;;;1.67;;
77191;SDS011;66172;48.526;8.078;2023-04-03T00:58:40;5.32;;;1.70;;
77191;SDS011;66172;48.526;8.078;2023-04-03T01:01:11;4.78;;;1.58;;
77191;SDS011;66172;48.526;8.078;2023-04-03T01:03:40;5.13;;;1.40;;
77191;SDS011;66172;48.526;8.078;2023-04-03T01:06:06;5.53;;;1.60;;
77191;SDS011;66172;48.526;8.078;2023-04-03T01:08:32;5.30;;;1.90;;
77191;SDS011;66172;48.526;8.078;2023-04-03T01:10:59;5.55;;;1.83;;
77191;SDS011;66172;48.526;8.078;2023-04-03T01:13:26;5.05;;;1.80;;
77191;SDS011;66172;48.526;8.078;2023-04-03T01:15:55;5.33;;;1.50;;
77191;SDS011;66172;48.526;8.078;2023-04-03T01:18:22;5.70;;;1.92;;
77191;SDS011;66172;48.526;8.078;2023-04-03T01:23:27;5.25;;;1.60;;
77191;SDS011;66172;48.526;8.078;2023-04-03T01:26:00;4.82;;;1.52;;
77191;SDS011;66172;48.526;8.078;2023-04-03T01:28:29;5.00;;;1.40;;
77191;SDS011;66172;48.526;8.078;2023-04-03T01:33:42;5.28;;;1.60;;
77191;SDS011;66172;48.526;8.078;2023-04-03T01:36:10;4.70;;;1.40;;
77191;SDS011;66172;48.526;8.078;2023-04-03T01:38:41;4.75;;;1.60;;
77191;SDS011;66172;48.526;8.078;2023-04-03T01:41:07;6.70;;;1.67;;
77191;SDS011;66172;48.526;8.078;2023-04-03T01:43:32;5.13;;;1.60;;
77191;SDS011;66172;48.526;8.078;2023-04-03T01:45:58;5.97;;;1.52;;
77191;SDS011;66172;48.526;8.078;2023-04-03T01:48:24;5.10;;;1.50;;
77191;SDS011;66172;48.526;8.078;2023-04-03T01:50:50;7.72;;;1.60;;
77191;SDS011;66172;48.526;8.078;2023-04-03T01:53:16;6.15;;;1.50;;
77191;SDS011;66172;48.526;8.078;2023-04-03T01:55:42;4.68;;;1.33;;
77191;SDS011;66172;48.526;8.078;2023-04-03T01:58:08;5.53;;;1.60;;
77191;SDS011;66172;48.526;8.078;2023-04-03T02:00:34;4.60;;;1.40;;
77191;SDS011;66172;48.526;8.078;2023-04-03T02:03:00;5.30;;;1.50;;
77191;SDS011;66172;48.526;8.078;2023-04-03T02:05:26;4.63;;;1.50;;
77191;SDS011;66172;48.526;8.078;2023-04-03T02:07:51;4.90;;;1.50;;
77191;SDS011;66172;48.526;8.078;2023-04-03T02:10:17;4.60;;;1.70;;
77191;SDS011;66172;48.526;8.078;2023-04-03T02:12:43;5.20;;;1.77;;
77191;SDS011;66172;48.526;8.078;2023-04-03T02:15:09;5.00;;;1.50;;
77191;SDS011;66172;48.526;8.078;2023-04-03T02:17:35;5.97;;;1.75;;
77191;SDS011;66172;48.526;8.078;2023-04-03T02:20:02;5.78;;;1.70;;
77191;SDS011;66172;48.526;8.078;2023-04-03T02:22:28;5.10;;;1.58;;
77191;SDS011;66172;48.526;8.078;2023-04-03T02:24:54;7.77;;;2.20;;
77191;SDS011;66172;48.526;8.078;2023-04-03T02:27:20;4.75;;;1.55;;
77191;SDS011;66172;48.526;8.078;2023-04-03T02:29:46;6.38;;;1.85;;
77191;SDS011;66172;48.526;8.078;2023-04-03T02:32:12;8.73;;;1.80;;
77191;SDS011;66172;48.526;8.078;2023-04-03T02:34:38;7.07;;;1.40;;
77191;SDS011;66172;48.526;8.078;2023-04-03T02:37:04;5.25;;;1.48;;
77191;SDS011;66172;48.526;8.078;2023-04-03T02:39:29;5.28;;;1.70;;
77191;SDS011;66172;48.526;8.078;2023-04-03T02:41:55;5.30;;;1.73;;
77191;SDS011;66172;48.526;8.078;2023-04-03T02:44:21;5.30;;;1.98;;
77191;SDS011;66172;48.526;8.078;2023-04-03T02:46:49;4.65;;;2.00;;
77191;SDS011;66172;48.526;8.078;2023-04-03T02:49:15;5.18;;;2.00;;
77191;SDS011;66172;48.526;8.078;2023-04-03T02:51:41;6.60;;;1.70;;
77191;SDS011;66172;48.526;8.078;2023-04-03T02:54:07;7.75;;;1.75;;
77191;SDS011;66172;48.526;8.078;2023-04-03T02:56:33;4.55;;;1.80;;
77191;SDS011;66172;48.526;8.078;2023-04-03T02:58:59;6.28;;;1.83;;
77191;SDS011;66172;48.526;8.078;2023-04-03T03:01:25;5.90;;;2.70;;
77191;SDS011;66172;48.526;8.078;2023-04-03T03:03:54;5.75;;;2.40;;
77191;SDS011;66172;48.526;8.078;2023-04-03T03:06:19;7.88;;;2.72;;
77191;SDS011;66172;48.526;8.078;2023-04-03T03:08:45;6.60;;;2.83;;
77191;SDS011;66172;48.526;8.078;2023-04-03T03:11:11;4.83;;;1.73;;
77191;SDS011;66172;48.526;8.078;2023-04-03T03:13:37;4.72;;;1.60;;
77191;SDS011;66172;48.526;8.078;2023-04-03T03:16:03;5.05;;;1.77;;
77191;SDS011;66172;48.526;8.078;2023-04-03T03:18:30;4.65;;;1.38;;
77191;SDS011;66172;48.526;8.078;2023-04-03T03:20:56;5.50;;;1.80;;
77191;SDS011;66172;48.526;8.078;2023-04-03T03:23:24;5.60;;;2.00;;
77191;SDS011;66172;48.526;8.078;2023-04-03T03:26:10;5.00;;;1.50;;
77191;SDS011;66172;48.526;8.078;2023-04-03T03:28:37;5.13;;;1.60;;
77191;SDS011;66172;48.526;8.078;2023-04-03T03:31:04;5.07;;;1.95;;
77191;SDS011;66172;48.526;8.078;2023-04-03T03:33:31;6.43;;;1.53;;
77191;SDS011;66172;48.526;8.078;2023-04-03T03:35:57;6.22;;;1.58;;
77191;SDS011;66172;48.526;8.078;2023-04-03T03:38:23;5.05;;;1.75;;
77191;SDS011;66172;48.526;8.078;2023-04-03T03:40:49;5.53;;;2.08;;
77191;SDS011;66172;48.526;8.078;2023-04-03T03:43:17;5.10;;;1.70;;
77191;SDS011;66172;48.526;8.078;2023-04-03T03:45:43;5.13;;;1.88;;
77191;SDS011;66172;48.526;8.078;2023-04-03T03:48:11;5.30;;;1.92;;
77191;SDS011;66172;48.526;8.078;2023-04-03T03:50:37;5.38;;;2.00;;
77191;SDS011;66172;48.526;8.078;2023-04-03T03:53:03;5.90;;;2.07;;
77191;SDS011;66172;48.526;8.078;2023-04-03T03:55:28;6.20;;;1.90;;
77191;SDS011;66172;48.526;8.078;2023-04-03T03:57:54;5.88;;;2.03;;
77191;SDS011;66172;48.526;8.078;2023-04-03T04:00:20;5.80;;;1.90;;
77191;SDS011;66172;48.526;8.078;2023-04-03T04:02:46;7.70;;;1.73;;
77191;SDS011;66172;48.526;8.078;2023-04-03T04:05:12;6.60;;;2.10;;
77191;SDS011;66172;48.526;8.078;2023-04-03T04:07:38;5.30;;;2.30;;
77191;SDS011;66172;48.526;8.078;2023-04-03T04:10:04;7.63;;;2.20;;
77191;SDS011;66172;48.526;8.078;2023-04-03T04:12:30;7.03;;;2.47;;
77191;SDS011;66172;48.526;8.078;2023-04-03T04:14:56;6.15;;;1.98;;
77191;SDS011;66172;48.526;8.078;2023-04-03T04:17:22;5.47;;;2.00;;
77191;SDS011;66172;48.526;8.078;2023-04-03T04:19:48;6.50;;;2.33;;
77191;SDS011;66172;48.526;8.078;2023-04-03T04:22:14;6.80;;;2.45;;
77191;SDS011;66172;48.526;8.078;2023-04-03T04:24:40;6.97;;;2.65;;
77191;SDS011;66172;48.526;8.078;2023-04-03T04:27:06;7.87;;;3.03;;
77191;SDS011;66172;48.526;8.078;2023-04-03T04:29:32;6.73;;;2.50;;
77191;SDS011;66172;48.526;8.078;2023-04-03T04:32:01;6.65;;;2.38;;
77191;SDS011;66172;48.526;8.078;2023-04-03T04:34:28;6.57;;;2.00;;
77191;SDS011;66172;48.526;8.078;2023-04-03T04:36:55;5.53;;;2.40;;
77191;SDS011;66172;48.526;8.078;2023-04-03T04:39:21;5.70;;;2.40;;
77191;SDS011;66172;48.526;8.078;2023-04-03T04:41:47;8.35;;;2.47;;
77191;SDS011;66172;48.526;8.078;2023-04-03T04:44:12;5.38;;;2.45;;
77191;SDS011;66172;48.526;8.078;2023-04-03T04:46:38;8.45;;;2.47;;
77191;SDS011;66172;48.526;8.078;2023-04-03T04:49:04;6.33;;;2.63;;
77191;SDS011;66172;48.526;8.078;2023-04-03T04:51:31;6.70;;;2.35;;
77191;SDS011;66172;48.526;8.078;2023-04-03T04:53:57;6.32;;;2.60;;
77191;SDS011;66172;48.526;8.078;2023-04-03T04:56:22;6.93;;;2.80;;
77191;SDS011;66172;48.526;8.078;2023-04-03T04:58:48;7.03;;;2.40;;
77191;SDS011;66172;48.526;8.078;2023-04-03T05:01:14;7.13;;;2.70;;
77191;SDS011;66172;48.526;8.078;2023-04-03T05:03:40;6.22;;;2.60;;
77191;SDS011;66172;48.526;8.078;2023-04-03T05:06:06;9.32;;;3.60;;
77191;SDS011;66172;48.526;8.078;2023-04-03T05:08:32;11.47;;;3.67;;
77191;SDS011;66172;48.526;8.078;2023-04-03T05:10:58;9.90;;;3.58;;
77191;SDS011;66172;48.526;8.078;2023-04-03T05:13:24;8.70;;;4.00;;
77191;SDS011;66172;48.526;8.078;2023-04-03T05:15:50;8.43;;;3.47;;
77191;SDS011;66172;48.526;8.078;2023-04-03T05:18:16;11.77;;;3.50;;
77191;SDS011;66172;48.526;8.078;2023-04-03T05:20:42;9.13;;;4.10;;
77191;SDS011;66172;48.526;8.078;2023-04-03T05:23:09;8.65;;;4.70;;
77191;SDS011;66172;48.526;8.078;2023-04-03T05:25:38;9.13;;;3.77;;
77191;SDS011;66172;48.526;8.078;2023-04-03T05:28:05;8.45;;;4.53;;
77191;SDS011;66172;48.526;8.078;2023-04-03T05:30:31;9.13;;;3.85;;
77191;SDS011;66172;48.526;8.078;2023-04-03T05:32:58;9.18;;;3.80;;
77191;SDS011;66172;48.526;8.078;2023-04-03T05:35:24;6.88;;;3.10;;
77191;SDS011;66172;48.526;8.078;2023-04-03T05:37:50;11.07;;;3.87;;
77191;SDS011;66172;48.526;8.078;2023-04-03T05:40:16;8.70;;;3.40;;
77191;SDS011;66172;48.526;8.078;2023-04-03T05:42:43;6.82;;;3.20;;
77191;SDS011;66172;48.526;8.078;2023-04-03T05:45:09;6.53;;;3.30;;
77191;SDS011;66172;48.526;8.078;2023-04-03T05:47:38;7.00;;;2.53;;
77191;SDS011;66172;48.526;8.078;2023-04-03T05:50:04;8.63;;;2.30;;
77191;SDS011;66172;48.526;8.078;2023-04-03T05:52:32;6.30;;;2.40;;
77191;SDS011;66172;48.526;8.078;2023-04-03T05:55:02;7.07;;;2.33;;
77191;SDS011;66172;48.526;8.078;2023-04-03T05:57:28;6.10;;;2.42;;
77191;SDS011;66172;48.526;8.078;2023-04-03T05:59:54;6.17;;;2.30;;
77191;SDS011;66172;48.526;8.078;2023-04-03T06:02:21;5.68;;;2.08;;
77191;SDS011;66172;48.526;8.078;2023-04-03T06:04:48;6.85;;;2.30;;
77191;SDS011;66172;48.526;8.078;2023-04-03T06:07:15;5.70;;;2.20;;
77191;SDS011;66172;48.526;8.078;2023-04-03T06:09:46;5.40;;;2.13;;
77191;SDS011;66172;48.526;8.078;2023-04-03T06:12:12;5.80;;;2.10;;
77191;SDS011;66172;48.526;8.078;2023-04-03T06:14:38;5.38;;;1.98;;
77191;SDS011;66172;48.526;8.078;2023-04-03T06:17:05;7.50;;;2.05;;
77191;SDS011;66172;48.526;8.078;2023-04-03T06:19:31;5.82;;;1.98;;
77191;SDS011;66172;48.526;8.078;2023-04-03T06:21:57;6.83;;;1.93;;
77191;SDS011;66172;48.526;8.078;2023-04-03T06:24:23;5.43;;;2.20;;
77191;SDS011;66172;48.526;8.078;2023-04-03T06:26:51;4.93;;;1.70;;
77191;SDS011;66172;48.526;8.078;2023-04-03T06:29:18;5.88;;;1.88;;
77191;SDS011;66172;48.526;8.078;2023-04-03T06:31:45;5.10;;;1.60;;
77191;SDS011;66172;48.526;8.078;2023-04-03T06:34:12;6.07;;;1.70;;
77191;SDS011;66172;48.526;8.078;2023-04-03T06:36:38;4.68;;;1.58;;
77191;SDS011;66172;48.526;8.078;2023-04-03T06:39:05;5.03;;;1.90;;
77191;SDS011;66172;48.526;8.078;2023-04-03T06:41:32;4.80;;;1.70;;
77191;SDS011;66172;48.526;8.078;2023-04-03T06:43:58;3.95;;;1.45;;
77191;SDS011;66172;48.526;8.078;2023-04-03T06:46:25;4.10;;;1.50;;
77191;SDS011;66172;48.526;8.078;2023-04-03T06:48:52;5.03;;;1.95;;
77191;SDS011;66172;48.526;8.078;2023-04-03T06:51:22;4.97;;;1.50;;
77191;SDS011;66172;48.526;8.078;2023-04-03T06:53:53;4.40;;;1.58;;
77191;SDS011;66172;48.526;8.078;2023-04-03T06:56:21;4.20;;;1.50;;
77191;SDS011;66172;48.526;8.078;2023-04-03T06:58:47;4.43;;;1.73;;
77191;SDS011;66172;48.526;8.078;2023-04-03T07:01:15;4.72;;;1.90;;
77191;SDS011;66172;48.526;8.078;2023-04-03T07:03:42;4.22;;;1.75;;
77191;SDS011;66172;48.526;8.078;2023-04-03T07:06:09;6.00;;;2.22;;
77191;SDS011;66172;48.526;8.078;2023-04-03T07:08:37;6.10;;;2.40;;
77191;SDS011;66172;48.526;8.078;2023-04-03T07:11:03;5.22;;;2.35;;
77191;SDS011;66172;48.526;8.078;2023-04-03T07:13:29;5.53;;;2.00;;
77191;SDS011;66172;48.526;8.078;2023-04-03T07:15:55;5.03;;;2.05;;
77191;SDS011;66172;48.526;8.078;2023-04-03T07:18:22;5.37;;;2.30;;
77191;SDS011;66172;48.526;8.078;2023-04-03T07:20:48;4.43;;;1.70;;
77191;SDS011;66172;48.526;8.078;2023-04-03T07:23:15;6.43;;;2.22;;
77191;SDS011;66172;48.526;8.078;2023-04-03T07:25:44;5.93;;;1.98;;
77191;SDS011;66172;48.526;8.078;2023-04-03T07:28:11;4.53;;;2.00;;
77191;SDS011;66172;48.526;8.078;2023-04-03T07:30:50;4.73;;;1.80;;
77191;SDS011;66172;48.526;8.078;2023-04-03T07:33:19;5.95;;;1.80;;
77191;SDS011;66172;48.526;8.078;2023-04-03T07:35:47;4.63;;;1.60;;
77191;SDS011;66172;48.526;8.078;2023-04-03T07:38:13;6.10;;;1.70;;
77191;SDS011;66172;48.526;8.078;2023-04-03T07:40:39;5.20;;;2.33;;
77191;SDS011;66172;48.526;8.078;2023-04-03T07:43:05;4.63;;;1.70;;
77191;SDS011;66172;48.526;8.078;2023-04-03T07:45:32;4.93;;;1.55;;
77191;SDS011;66172;48.526;8.078;2023-04-03T07:48:00;5.05;;;1.65;;
77191;SDS011;66172;48.526;8.078;2023-04-03T07:50:26;4.97;;;1.50;;
77191;SDS011;66172;48.526;8.078;2023-04-03T07:52:52;4.68;;;1.80;;
77191;SDS011;66172;48.526;8.078;2023-04-03T07:55:20;5.37;;;1.50;;
77191;SDS011;66172;48.526;8.078;2023-04-03T07:57:45;4.25;;;1.40;;
77191;SDS011;66172;48.526;8.078;2023-04-03T08:00:12;4.63;;;1.30;;
77191;SDS011;66172;48.526;8.078;2023-04-03T08:02:38;4.50;;;1.60;;
77191;SDS011;66172;48.526;8.078;2023-04-03T08:05:04;4.00;;;1.40;;
77191;SDS011;66172;48.526;8.078;2023-04-03T08:07:31;6.82;;;1.90;;
77191;SDS011;66172;48.526;8.078;2023-04-03T08:09:57;5.95;;;1.77;;
77191;SDS011;66172;48.526;8.078;2023-04-03T08:12:23;5.07;;;1.40;;
77191;SDS011;66172;48.526;8.078;2023-04-03T08:14:48;4.13;;;1.40;;
77191;SDS011;66172;48.526;8.078;2023-04-03T08:17:15;5.95;;;2.10;;
77191;SDS011;66172;48.526;8.078;2023-04-03T08:19:40;4.88;;;1.75;;
77191;SDS011;66172;48.526;8.078;2023-04-03T08:22:07;5.07;;;1.63;;
77191;SDS011;66172;48.526;8.078;2023-04-03T08:24:33;4.17;;;1.40;;
77191;SDS011;66172;48.526;8.078;2023-04-03T08:26:59;4.33;;;1.63;;
77191;SDS011;66172;48.526;8.078;2023-04-03T08:29:26;4.65;;;1.50;;
77191;SDS011;66172;48.526;8.078;2023-04-03T08:31:53;4.57;;;1.60;;
77191;SDS011;66172;48.526;8.078;2023-04-03T08:34:19;5.25;;;1.80;;
77191;SDS011;66172;48.526;8.078;2023-04-03T08:36:45;5.93;;;1.80;;
77191;SDS011;66172;48.526;8.078;2023-04-03T08:39:12;4.40;;;1.60;;
77191;SDS011;66172;48.526;8.078;2023-04-03T08:41:39;6.15;;;2.00;;
77191;SDS011;66172;48.526;8.078;2023-04-03T08:46:37;4.60;;;1.40;;
77191;SDS011;66172;48.526;8.078;2023-04-03T08:49:10;5.50;;;1.23;;
77191;SDS011;66172;48.526;8.078;2023-04-03T08:51:47;4.85;;;1.30;;
77191;SDS011;66172;48.526;8.078;2023-04-03T08:54:24;4.60;;;1.30;;
77191;SDS011;66172;48.526;8.078;2023-04-03T08:56:55;4.10;;;1.40;;
77191;SDS011;66172;48.526;8.078;2023-04-03T08:59:28;4.90;;;1.38;;
77191;SDS011;66172;48.526;8.078;2023-04-03T09:01:57;4.83;;;1.30;;
77191;SDS011;66172;48.526;8.078;2023-04-03T09:04:27;5.85;;;1.48;;
77191;SDS011;66172;48.526;8.078;2023-04-03T09:07:00;3.78;;;1.00;;
77191;SDS011;66172;48.526;8.078;2023-04-03T09:09:35;5.15;;;1.38;;
77191;SDS011;66172;48.526;8.078;2023-04-03T09:12:21;4.28;;;1.30;;
77191;SDS011;66172;48.526;8.078;2023-04-03T09:17:45;3.83;;;1.02;;
77191;SDS011;66172;48.526;8.078;2023-04-03T09:20:20;4.82;;;1.40;;
77191;SDS011;66172;48.526;8.078;2023-04-03T09:22:52;4.20;;;1.25;;
77191;SDS011;66172;48.526;8.078;2023-04-03T09:25:20;4.68;;;1.60;;
77191;SDS011;66172;48.526;8.078;2023-04-03T09:27:48;5.80;;;1.80;;
77191;SDS011;66172;48.526;8.078;2023-04-03T09:30:15;4.45;;;1.50;;
77191;SDS011;66172;48.526;8.078;2023-04-03T09:32:45;6.47;;;1.30;;
77191;SDS011;66172;48.526;8.078;2023-04-03T09:40:37;4.23;;;1.20;;
77191;SDS011;66172;48.526;8.078;2023-04-03T09:45:43;5.05;;;1.70;;
77191;SDS011;66172;48.526;8.078;2023-04-03T09:53:28;4.63;;;1.40;;
77191;SDS011;66172;48.526;8.078;2023-04-03T09:58:44;5.05;;;1.60;;
77191;SDS011;66172;48.526;8.078;2023-04-03T10:01:21;5.78;;;1.58;;
77191;SDS011;66172;48.526;8.078;2023-04-03T10:06:41;4.10;;;1.30;;
77191;SDS011;66172;48.526;8.078;2023-04-03T10:09:25;6.35;;;1.58;;
77191;SDS011;66172;48.526;8.078;2023-04-03T10:12:11;4.20;;;1.25;;
77191;SDS011;66172;48.526;8.078;2023-04-03T10:14:40;5.15;;;1.60;;
77191;SDS011;66172;48.526;8.078;2023-04-03T10:25:59;5.30;;;1.75;;
77191;SDS011;66172;48.526;8.078;2023-04-03T10:36:53;5.18;;;1.80;;
77191;SDS011;66172;48.526;8.078;2023-04-03T10:42:28;6.07;;;1.40;;
77191;SDS011;66172;48.526;8.078;2023-04-03T10:53:01;5.25;;;1.67;;
77191;SDS011;66172;48.526;8.078;2023-04-03T10:55:44;5.50;;;1.50;;
77191;SDS011;66172;48.526;8.078;2023-04-03T10:58:21;4.55;;;1.40;;
77191;SDS011;66172;48.526;8.078;2023-04-03T11:01:08;4.97;;;1.60;;
77191;SDS011;66172;48.526;8.078;2023-04-03T11:03:40;4.35;;;1.63;;
77191;SDS011;66172;48.526;8.078;2023-04-03T11:06:11;4.85;;;1.42;;
77191;SDS011;66172;48.526;8.078;2023-04-03T11:11:41;4.15;;;1.10;;
77191;SDS011;66172;48.526;8.078;2023-04-03T11:14:11;5.17;;;1.30;;
77191;SDS011;66172;48.526;8.078;2023-04-03T11:16:45;6.30;;;1.48;;
77191;SDS011;66172;48.526;8.078;2023-04-03T11:24:39;5.20;;;1.83;;
77191;SDS011;66172;48.526;8.078;2023-04-03T11:27:11;5.70;;;1.60;;
77191;SDS011;66172;48.526;8.078;2023-04-03T11:29:44;6.53;;;1.70;;
77191;SDS011;66172;48.526;8.078;2023-04-03T11:34:58;4.35;;;1.20;;
77191;SDS011;66172;48.526;8.078;2023-04-03T11:37:41;5.65;;;1.73;;
77191;SDS011;66172;48.526;8.078;2023-04-03T11:40:31;6.13;;;1.23;;
77191;SDS011;66172;48.526;8.078;2023-04-03T11:48:03;4.70;;;1.40;;
77191;SDS011;66172;48.526;8.078;2023-04-03T11:50:48;4.20;;;1.20;;
77191;SDS011;66172;48.526;8.078;2023-04-03T11:55:42;3.80;;;1.30;;
77191;SDS011;66172;48.526;8.078;2023-04-03T11:58:19;4.47;;;1.30;;
77191;SDS011;66172;48.526;8.078;2023-04-03T12:00:49;5.05;;;1.60;;
77191;SDS011;66172;48.526;8.078;2023-04-03T12:05:49;6.03;;;1.60;;
77191;SDS011;66172;48.526;8.078;2023-04-03T12:23:56;6.03;;;2.28;;
77191;SDS011;66172;48.526;8.078;2023-04-03T12:29:20;4.30;;;1.60;;
77191;SDS011;66172;48.526;8.078;2023-04-03T12:31:55;4.60;;;1.67;;
77191;SDS011;66172;48.526;8.078;2023-04-03T12:34:43;5.57;;;1.77;;
77191;SDS011;66172;48.526;8.078;2023-04-03T12:48:28;4.03;;;1.45;;
77191;SDS011;66172;48.526;8.078;2023-04-03T12:50:57;5.18;;;1.77;;
77191;SDS011;66172;48.526;8.078;2023-04-03T12:53:25;4.43;;;1.50;;
77191;SDS011;66172;48.526;8.078;2023-04-03T12:55:56;6.60;;;2.00;;
77191;SDS011;66172;48.526;8.078;2023-04-03T12:58:27;6.45;;;1.73;;
77191;SDS011;66172;48.526;8.078;2023-04-03T13:01:03;5.10;;;2.00;;
77191;SDS011;66172;48.526;8.078;2023-04-03T13:03:50;4.45;;;1.65;;
77191;SDS011;66172;48.526;8.078;2023-04-03T13:06:19;8.07;;;1.60;;
77191;SDS011;66172;48.526;8.078;2023-04-03T13:08:49;5.60;;;1.43;;
77191;SDS011;66172;48.526;8.078;2023-04-03T13:11:16;6.15;;;1.40;;
77191;SDS011;66172;48.526;8.078;2023-04-03T13:16:54;4.25;;;1.50;;
77191;SDS011;66172;48.526;8.078;2023-04-03T13:19:22;6.75;;;1.50;;
77191;SDS011;66172;48.526;8.078;2023-04-03T13:22:10;5.53;;;1.50;;
77191;SDS011;66172;48.526;8.078;2023-04-03T13:24:49;4.55;;;1.30;;
77191;SDS011;66172;48.526;8.078;2023-04-03T13:27:17;4.10;;;1.23;;
77191;SDS011;66172;48.526;8.078;2023-04-03T13:29:48;5.95;;;1.80;;
77191;SDS011;66172;48.526;8.078;2023-04-03T13:32:18;6.82;;;1.70;;
77191;SDS011;66172;48.526;8.078;2023-04-03T13:34:48;7.10;;;1.90;;
77191;SDS011;66172;48.526;8.078;2023-04-03T13:37:24;5.07;;;1.40;;
77191;SDS011;66172;48.526;8.078;2023-04-03T13:40:24;6.30;;;1.75;;
77191;SDS011;66172;48.526;8.078;2023-04-03T13:42:42;7.22;;;1.42;;
77191;SDS011;66172;48.526;8.078;2023-04-03T13:45:09;7.30;;;1.50;;
77191;SDS011;66172;48.526;8.078;2023-04-03T13:47:45;4.78;;;1.50;;
77191;SDS011;66172;48.526;8.078;2023-04-03T13:50:16;5.10;;;1.50;;
77191;SDS011;66172;48.526;8.078;2023-04-03T13:57:58;5.57;;;1.50;;
77191;SDS011;66172;48.526;8.078;2023-04-03T14:03:03;5.28;;;1.90;;
77191;SDS011;66172;48.526;8.078;2023-04-03T14:05:44;4.60;;;1.20;;
77191;SDS011;66172;48.526;8.078;2023-04-03T14:08:11;6.15;;;1.45;;
77191;SDS011;66172;48.526;8.078;2023-04-03T14:10:37;6.37;;;1.57;;
77191;SDS011;66172;48.526;8.078;2023-04-03T14:13:03;5.10;;;1.65;;
77191;SDS011;66172;48.526;8.078;2023-04-03T14:15:30;5.80;;;1.33;;
77191;SDS011;66172;48.526;8.078;2023-04-03T14:17:57;4.93;;;1.20;;
77191;SDS011;66172;48.526;8.078;2023-04-03T14:20:25;4.78;;;1.60;;
77191;SDS011;66172;48.526;8.078;2023-04-03T14:22:52;10.47;;;1.80;;
77191;SDS011;66172;48.526;8.078;2023-04-03T14:25:19;5.15;;;1.10;;
77191;SDS011;66172;48.526;8.078;2023-04-03T14:27:47;4.05;;;1.08;;
77191;SDS011;66172;48.526;8.078;2023-04-03T14:30:19;5.97;;;1.15;;
77191;SDS011;66172;48.526;8.078;2023-04-03T14:32:49;4.32;;;1.10;;
77191;SDS011;66172;48.526;8.078;2023-04-03T14:35:16;6.03;;;1.30;;
77191;SDS011;66172;48.526;8.078;2023-04-03T14:37:43;4.32;;;1.10;;
77191;SDS011;66172;48.526;8.078;2023-04-03T14:40:11;5.75;;;1.33;;
77191;SDS011;66172;48.526;8.078;2023-04-03T14:42:39;5.25;;;1.10;;
77191;SDS011;66172;48.526;8.078;2023-04-03T14:45:07;4.57;;;1.20;;
77191;SDS011;66172;48.526;8.078;2023-04-03T14:47:39;4.10;;;0.93;;
77191;SDS011;66172;48.526;8.078;2023-04-03T14:50:11;4.10;;;1.30;;
77191;SDS011;66172;48.526;8.078;2023-04-03T14:52:41;4.22;;;1.10;;
77191;SDS011;66172;48.526;8.078;2023-04-03T14:55:07;5.95;;;1.00;;
77191;SDS011;66172;48.526;8.078;2023-04-03T14:57:34;5.78;;;1.25;;
77191;SDS011;66172;48.526;8.078;2023-04-03T15:00:00;4.33;;;1.00;;
77191;SDS011;66172;48.526;8.078;2023-04-03T15:02:38;5.72;;;1.20;;
77191;SDS011;66172;48.526;8.078;2023-04-03T15:05:05;5.30;;;1.40;;
77191;SDS011;66172;48.526;8.078;2023-04-03T15:07:37;4.82;;;1.20;;
77191;SDS011;66172;48.526;8.078;2023-04-03T15:10:15;3.97;;;1.23;;
77191;SDS011;66172;48.526;8.078;2023-04-03T15:12:46;4.47;;;1.40;;
77191;SDS011;66172;48.526;8.078;2023-04-03T15:15:14;5.07;;;1.40;;
77191;SDS011;66172;48.526;8.078;2023-04-03T15:17:41;4.65;;;1.40;;
77191;SDS011;66172;48.526;8.078;2023-04-03T15:20:18;6.22;;;1.58;;
77191;SDS011;66172;48.526;8.078;2023-04-03T15:22:46;5.43;;;1.30;;
77191;SDS011;66172;48.526;8.078;2023-04-03T15:25:12;5.43;;;1.10;;
77191;SDS011;66172;48.526;8.078;2023-04-03T15:27:38;4.10;;;1.15;;
77191;SDS011;66172;48.526;8.078;2023-04-03T15:30:11;4.60;;;1.08;;
77191;SDS011;66172;48.526;8.078;2023-04-03T15:32:41;4.13;;;1.00;;
77191;SDS011;66172;48.526;8.078;2023-04-03T15:35:07;4.30;;;1.17;;
77191;SDS011;66172;48.526;8.078;2023-04-03T15:37:33;6.37;;;1.50;;
77191;SDS011;66172;48.526;8.078;2023-04-03T15:40:00;6.57;;;1.30;;
77191;SDS011;66172;48.526;8.078;2023-04-03T15:42:25;6.45;;;1.30;;
77191;SDS011;66172;48.526;8.078;2023-04-03T15:44:51;4.22;;;1.30;;
77191;SDS011;66172;48.526;8.078;2023-04-03T15:47:17;5.23;;;0.93;;
77191;SDS011;66172;48.526;8.078;2023-04-03T15:49:43;4.57;;;1.13;;
77191;SDS011;66172;48.526;8.078;2023-04-03T15:52:09;5.22;;;1.17;;
77191;SDS011;66172;48.526;8.078;2023-04-03T15:54:35;5.10;;;1.10;;
77191;SDS011;66172;48.526;8.078;2023-04-03T15:57:01;5.23;;;1.13;;
77191;SDS011;66172;48.526;8.078;2023-04-03T15:59:27;3.75;;;0.98;;
77191;SDS011;66172;48.526;8.078;2023-04-03T16:01:56;3.90;;;1.17;;
77191;SDS011;66172;48.526;8.078;2023-04-03T16:04:22;4.05;;;1.30;;
77191;SDS011;66172;48.526;8.078;2023-04-03T16:06:48;5.17;;;1.17;;
77191;SDS011;66172;48.526;8.078;2023-04-03T16:09:15;5.03;;;0.90;;
77191;SDS011;66172;48.526;8.078;2023-04-03T16:11:41;4.70;;;1.00;;
77191;SDS011;66172;48.526;8.078;2023-04-03T16:14:07;5.38;;;1.30;;
77191;SDS011;66172;48.526;8.078;2023-04-03T16:16:33;4.53;;;1.17;;
77191;SDS011;66172;48.526;8.078;2023-04-03T16:19:00;4.83;;;1.30;;
77191;SDS011;66172;48.526;8.078;2023-04-03T16:21:26;4.43;;;1.02;;
77191;SDS011;66172;48.526;8.078;2023-04-03T16:23:52;5.18;;;1.10;;
77191;SDS011;66172;48.526;8.078;2023-04-03T16:26:19;3.83;;;1.05;;
77191;SDS011;66172;48.526;8.078;2023-04-03T16:28:45;4.88;;;1.08;;
77191;SDS011;66172;48.526;8.078;2023-04-03T16:31:11;4.87;;;1.40;;
77191;SDS011;66172;48.526;8.078;2023-04-03T16:33:37;4.60;;;1.20;;
77191;SDS011;66172;48.526;8.078;2023-04-03T16:36:03;6.65;;;1.52;;
77191;SDS011;66172;48.526;8.078;2023-04-03T16:38:30;5.65;;;1.27;;
77191;SDS011;66172;48.526;8.078;2023-04-03T16:40:56;5.87;;;1.10;;
77191;SDS011;66172;48.526;8.078;2023-04-03T16:43:25;5.97;;;1.10;;
77191;SDS011;66172;48.526;8.078;2023-04-03T16:45:51;4.28;;;1.00;;
77191;SDS011;66172;48.526;8.078;2023-04-03T16:48:17;5.45;;;1.30;;
77191;SDS011;66172;48.526;8.078;2023-04-03T16:50:47;5.00;;;1.23;;
77191;SDS011;66172;48.526;8.078;2023-04-03T16:53:14;4.78;;;1.50;;
77191;SDS011;66172;48.526;8.078;2023-04-03T16:55:40;4.13;;;1.17;;